sensor_id;sensor_type;location;lat;lon;timestamp;pressure;altitude;pressure_sealevel;temperature;humidity
26112;BME280;13829;48.990;8.346;2023-04-01T00:02:15;99091.56;;;10.45;100.00
26112;BME280;13829;48.990;8.346;2023-04-01T00:04:48;99094.13;;;10.48;100.00
26112;BME280;13829;48.990;8.346;2023-04-01T00:07:24;99088.94;;;10.45;100.00
26112;BME280;13829;48.990;8.346;2023-04-01T00:10:10;99086.25;;;10.48;100.00
26112;BME280;13829;48.990;8.346;2023-04-01T00:12:51;99088.81;;;10.51;100.00
26112;BME280;13829;48.990;8.346;2023-04-01T00:15:32;99092.28;;;10.53;100.00
26112;BME280;13829;48.990;8.346;2023-04-01T00:18:12;99092.28;;;10.53;100.00
26112;BME280;13829;48.990;8.346;2023-04-01T00:20:47;99088.41;;;10.20;100.00
26112;BME280;13829;48.990;8.346;2023-04-01T00:23:26;99083.91;;;10.26;100.00
26112;BME280;13829;48.990;8.346;2023-04-01T00:26:02;99089.06;;;10.36;100.00
26112;BME280;13829;48.990;8.346;2023-04-01T00:28:40;99087.22;;;10.41;100.00
26112;BME280;13829;48.990;8.346;2023-04-01T00:31:22;99082.63;;;10.54;100.00
26112;BME280;13829;48.990;8.346;2023-04-01T00:34:05;99078.47;;;10.42;100.00
26112;BME280;13829;48.990;8.346;2023-04-01T00:36:41;99090.72;;;10.43;100.00
26112;BME280;13829;48.990;8.346;2023-04-01T00:39:14;99085.38;;;10.49;100.00
26112;BME280;13829;48.990;8.346;2023-04-01T00:42:04;99081.78;;;10.53;100.00
26112;BME280;13829;48.990;8.346;2023-04-01T00:44:49;99087.03;;;10.53;100.00
26112;BME280;13829;48.990;8.346;2023-04-01T00:47:37;99088.63;;;10.64;100.00
26112;BME280;13829;48.990;8.346;2023-04-01T00:50:10;99082.56;;;10.58;100.00
26112;BME280;13829;48.990;8.346;2023-04-01T00:52:52;99084.34;;;10.58;100.00
26112;BME280;13829;48.990;8.346;2023-04-01T00:55:21;99082.59;;;10.57;100.00
26112;BME280;13829;48.990;8.346;2023-04-01T00:57:52;99072.09;;;10.57;100.00
26112;BME280;13829;48.990;8.346;2023-04-01T01:00:25;99068.41;;;10.67;100.00
26112;BME280;13829;48.990;8.346;2023-04-01T01:02:52;99067.56;;;10.67;100.00
26112;BME280;13829;48.990;8.346;2023-04-01T01:05:29;99077.22;;;10.65;100.00
26112;BME280;13829;48.990;8.346;2023-04-01T01:08:15;99069.47;;;10.57;100.00
26112;BME280;13829;48.990;8.346;2023-04-01T01:10:49;99064.47;;;10.41;100.00
26112;BME280;13829;48.990;8.346;2023-04-01T01:13:24;99062.50;;;10.54;100.00
26112;BME280;13829;48.990;8.346;2023-04-01T01:16:00;99055.34;;;10.63;100.00
26112;BME280;13829;48.990;8.346;2023-04-01T01:18:41;99060.56;;;10.66;100.00
26112;BME280;13829;48.990;8.346;2023-04-01T01:21:39;99063.19;;;10.66;100.00
26112;BME280;13829;48.990;8.346;2023-04-01T01:24:41;99062.25;;;10.68;100.00
26112;BME280;13829;48.990;8.346;2023-04-01T01:27:15;99060.50;;;10.69;100.00
26112;BME280;13829;48.990;8.346;2023-04-01T01:30:19;99054.53;;;10.57;100.00
26112;BME280;13829;48.990;8.346;2023-04-01T01:33:31;99063.34;;;10.55;100.00
26112;BME280;13829;48.990;8.346;2023-04-01T01:36:06;99064.00;;;10.69;100.00
26112;BME280;13829;48.990;8.346;2023-04-01T01:38:38;99062.53;;;10.51;100.00
26112;BME280;13829;48.990;8.346;2023-04-01T01:41:12;99051.91;;;10.59;100.00
26112;BME280;13829;48.990;8.346;2023-04-01T01:43:43;99059.03;;;10.51;100.00
26112;BME280;13829;48.990;8.346;2023-04-01T01:46:14;99059.16;;;10.43;100.00
26112;BME280;13829;48.990;8.346;2023-04-01T01:48:45;99041.41;;;10.57;100.00
26112;BME280;13829;48.990;8.346;2023-04-01T01:51:15;99037.13;;;10.52;100.00
26112;BME280;13829;48.990;8.346;2023-04-01T01:53:43;99040.56;;;10.54;100.00
26112;BME280;13829;48.990;8.346;2023-04-01T01:56:11;99038.81;;;10.56;100.00
26112;BME280;13829;48.990;8.346;2023-04-01T01:58:43;99039.53;;;10.66;100.00
26112;BME280;13829;48.990;8.346;2023-04-01T02:01:15;99042.88;;;10.74;100.00
26112;BME280;13829;48.990;8.346;2023-04-01T02:03:44;99049.16;;;10.65;100.00
26112;BME280;13829;48.990;8.346;2023-04-01T02:06:18;99043.13;;;10.58;100.00
26112;BME280;13829;48.990;8.346;2023-04-01T02:08:51;99039.78;;;10.50;100.00
26112;BME280;13829;48.990;8.346;2023-04-01T02:11:27;99032.72;;;10.52;98.17
26112;BME280;13829;48.990;8.346;2023-04-01T02:14:05;99046.00;;;10.44;99.51
26112;BME280;13829;48.990;8.346;2023-04-01T02:16:43;99045.31;;;10.32;99.66
26112;BME280;13829;48.990;8.346;2023-04-01T02:19:13;99044.44;;;10.29;99.57
26112;BME280;13829;48.990;8.346;2023-04-01T02:21:43;99043.63;;;10.27;98.61
26112;BME280;13829;48.990;8.346;2023-04-01T02:24:14;99044.44;;;10.31;98.82
26112;BME280;13829;48.990;8.346;2023-04-01T02:26:42;99039.97;;;10.35;98.55
26112;BME280;13829;48.990;8.346;2023-04-01T02:29:12;99045.34;;;10.30;98.17
26112;BME280;13829;48.990;8.346;2023-04-01T02:31:42;99048.75;;;10.37;98.15
26112;BME280;13829;48.990;8.346;2023-04-01T02:34:14;99044.34;;;10.39;96.81
26112;BME280;13829;48.990;8.346;2023-04-01T02:36:49;99047.03;;;10.33;97.47
26112;BME280;13829;48.990;8.346;2023-04-01T02:39:17;99042.78;;;10.24;98.75
26112;BME280;13829;48.990;8.346;2023-04-01T02:41:45;99043.81;;;10.15;99.50
26112;BME280;13829;48.990;8.346;2023-04-01T02:44:14;99035.06;;;10.13;99.83
26112;BME280;13829;48.990;8.346;2023-04-01T02:46:42;99031.66;;;10.08;98.60
26112;BME280;13829;48.990;8.346;2023-04-01T02:49:09;99040.38;;;10.10;99.42
26112;BME280;13829;48.990;8.346;2023-04-01T02:51:36;99040.41;;;10.08;99.09
26112;BME280;13829;48.990;8.346;2023-04-01T02:54:04;99044.72;;;10.12;99.30
26112;BME280;13829;48.990;8.346;2023-04-01T02:56:33;99044.72;;;10.12;99.16
26112;BME280;13829;48.990;8.346;2023-04-01T02:59:00;99034.94;;;10.22;98.74
26112;BME280;13829;48.990;8.346;2023-04-01T03:01:27;99041.13;;;10.20;99.05
26112;BME280;13829;48.990;8.346;2023-04-01T03:03:56;99042.94;;;10.13;98.46
26112;BME280;13829;48.990;8.346;2023-04-01T03:06:23;99049.00;;;10.18;99.17
26112;BME280;13829;48.990;8.346;2023-04-01T03:08:52;99043.81;;;10.15;98.80
26112;BME280;13829;48.990;8.346;2023-04-01T03:11:22;99043.84;;;10.12;98.10
26112;BME280;13829;48.990;8.346;2023-04-01T03:13:49;99047.31;;;10.14;98.50
26112;BME280;13829;48.990;8.346;2023-04-01T03:16:16;99051.69;;;10.15;98.37
26112;BME280;13829;48.990;8.346;2023-04-01T03:18:43;99054.22;;;10.21;98.23
26112;BME280;13829;48.990;8.346;2023-04-01T03:21:17;99052.47;;;10.20;98.52
26112;BME280;13829;48.990;8.346;2023-04-01T03:23:45;99052.41;;;10.23;98.54
26112;BME280;13829;48.990;8.346;2023-04-01T03:26:12;99055.03;;;10.26;97.21
26112;BME280;13829;48.990;8.346;2023-04-01T03:28:43;99048.00;;;10.27;95.77
26112;BME280;13829;48.990;8.346;2023-04-01T03:31:15;99053.16;;;10.33;96.75
26112;BME280;13829;48.990;8.346;2023-04-01T03:33:47;99049.66;;;10.33;96.39
26112;BME280;13829;48.990;8.346;2023-04-01T03:36:16;99047.03;;;10.33;96.74
26112;BME280;13829;48.990;8.346;2023-04-01T03:38:43;99052.28;;;10.36;95.88
26112;BME280;13829;48.990;8.346;2023-04-01T03:41:16;99044.34;;;10.37;95.75
26112;BME280;13829;48.990;8.346;2023-04-01T03:43:45;99055.72;;;10.39;95.27
26112;BME280;13829;48.990;8.346;2023-04-01T03:46:17;99037.19;;;10.47;95.94
26112;BME280;13829;48.990;8.346;2023-04-01T03:48:45;99045.03;;;10.50;95.34
26112;BME280;13829;48.990;8.346;2023-04-01T03:51:12;99048.59;;;10.48;95.89
26112;BME280;13829;48.990;8.346;2023-04-01T03:53:39;99047.78;;;10.44;95.79
26112;BME280;13829;48.990;8.346;2023-04-01T03:56:08;99044.44;;;10.31;96.05
26112;BME280;13829;48.990;8.346;2023-04-01T03:58:35;99041.88;;;10.26;94.97
26112;BME280;13829;48.990;8.346;2023-04-01T04:01:14;99047.06;;;10.29;95.45
26112;BME280;13829;48.990;8.346;2023-04-01T04:03:47;99042.66;;;10.33;94.99
26112;BME280;13829;48.990;8.346;2023-04-01T04:06:16;99038.28;;;10.32;97.43
26112;BME280;13829;48.990;8.346;2023-04-01T04:08:47;99040.03;;;10.32;97.24
26112;BME280;13829;48.990;8.346;2023-04-01T04:11:14;99033.03;;;10.34;97.77
26112;BME280;13829;48.990;8.346;2023-04-01T04:13:41;99034.72;;;10.35;97.21
26112;BME280;13829;48.990;8.346;2023-04-01T04:16:11;99030.41;;;10.31;97.79
26112;BME280;13829;48.990;8.346;2023-04-01T04:18:38;99024.34;;;10.28;97.49
26112;BME280;13829;48.990;8.346;2023-04-01T04:21:06;99028.53;;;10.42;95.25
26112;BME280;13829;48.990;8.346;2023-04-01T04:23:33;99033.88;;;10.36;97.00
26112;BME280;13829;48.990;8.346;2023-04-01T04:26:03;99029.41;;;10.41;97.20
26112;BME280;13829;48.990;8.346;2023-04-01T04:28:32;99029.47;;;10.35;97.09
26112;BME280;13829;48.990;8.346;2023-04-01T04:31:00;99017.16;;;10.40;96.71
26112;BME280;13829;48.990;8.346;2023-04-01T04:33:28;99031.22;;;10.39;97.56
26112;BME280;13829;48.990;8.346;2023-04-01T04:35:57;99019.69;;;10.46;95.19
26112;BME280;13829;48.990;8.346;2023-04-01T04:38:25;99010.09;;;10.43;96.31
26112;BME280;13829;48.990;8.346;2023-04-01T04:40:54;99020.53;;;10.48;95.97
26112;BME280;13829;48.990;8.346;2023-04-01T04:43:21;99018.78;;;10.47;95.85
26112;BME280;13829;48.990;8.346;2023-04-01T04:45:48;99016.13;;;10.49;96.02
26112;BME280;13829;48.990;8.346;2023-04-01T04:48:16;99006.53;;;10.46;96.25
26112;BME280;13829;48.990;8.346;2023-04-01T04:50:50;99011.91;;;10.40;95.70
26112;BME280;13829;48.990;8.346;2023-04-01T04:53:20;99002.16;;;10.47;95.81
26112;BME280;13829;48.990;8.346;2023-04-01T04:55:49;99001.25;;;10.49;96.30
26112;BME280;13829;48.990;8.346;2023-04-01T04:58:18;99013.44;;;10.53;95.10
26112;BME280;13829;48.990;8.346;2023-04-01T05:00:46;99002.06;;;10.51;94.87
26112;BME280;13829;48.990;8.346;2023-04-01T05:03:15;99003.22;;;10.36;96.18
26112;BME280;13829;48.990;8.346;2023-04-01T05:05:53;99001.25;;;10.49;94.90
26112;BME280;13829;48.990;8.346;2023-04-01T05:08:20;99011.75;;;10.49;95.88
26112;BME280;13829;48.990;8.346;2023-04-01T05:10:49;99004.03;;;10.38;96.06
26112;BME280;13829;48.990;8.346;2023-04-01T05:13:18;99004.69;;;10.51;95.03
26112;BME280;13829;48.990;8.346;2023-04-01T05:15:45;99005.66;;;10.47;96.38
26112;BME280;13829;48.990;8.346;2023-04-01T05:18:18;98997.75;;;10.49;96.61
26112;BME280;13829;48.990;8.346;2023-04-01T05:20:51;99001.31;;;10.44;96.14
26112;BME280;13829;48.990;8.346;2023-04-01T05:23:21;99001.38;;;10.40;96.59
26112;BME280;13829;48.990;8.346;2023-04-01T05:26:04;98999.44;;;10.51;95.95
26112;BME280;13829;48.990;8.346;2023-04-01T05:28:35;99000.47;;;10.44;96.80
26112;BME280;13829;48.990;8.346;2023-04-01T05:31:06;99000.38;;;10.49;97.18
26112;BME280;13829;48.990;8.346;2023-04-01T05:33:33;99009.34;;;10.37;97.74
26112;BME280;13829;48.990;8.346;2023-04-01T05:36:08;99006.75;;;10.34;100.00
26112;BME280;13829;48.990;8.346;2023-04-01T05:38:38;99007.75;;;10.23;100.00
26112;BME280;13829;48.990;8.346;2023-04-01T05:41:05;99009.00;;;10.01;100.00
26112;BME280;13829;48.990;8.346;2023-04-01T05:43:32;99006.28;;;10.05;100.00
26112;BME280;13829;48.990;8.346;2023-04-01T05:46:02;99001.00;;;10.07;100.00
26112;BME280;13829;48.990;8.346;2023-04-01T05:48:32;99007.22;;;10.03;100.00
26112;BME280;13829;48.990;8.346;2023-04-01T05:51:11;99000.25;;;10.00;100.00
26112;BME280;13829;48.990;8.346;2023-04-01T05:53:39;99006.41;;;9.98;100.00
26112;BME280;13829;48.990;8.346;2023-04-01T05:56:09;99007.22;;;10.03;100.00
26112;BME280;13829;48.990;8.346;2023-04-01T05:58:37;99005.34;;;10.09;100.00
26112;BME280;13829;48.990;8.346;2023-04-01T06:01:09;99003.69;;;10.04;100.00
26112;BME280;13829;48.990;8.346;2023-04-01T06:03:36;99009.03;;;9.98;100.00
26112;BME280;13829;48.990;8.346;2023-04-01T06:06:15;99001.97;;;10.03;100.00
26112;BME280;13829;48.990;8.346;2023-04-01T06:08:49;98997.69;;;9.97;100.00
26112;BME280;13829;48.990;8.346;2023-04-01T06:11:28;99003.94;;;9.88;100.00
26112;BME280;13829;48.990;8.346;2023-04-01T06:14:26;98997.03;;;9.81;100.00
26112;BME280;13829;48.990;8.346;2023-04-01T06:17:16;99012.09;;;9.68;100.00
26112;BME280;13829;48.990;8.346;2023-04-01T06:19:55;99012.13;;;9.65;100.00
26112;BME280;13829;48.990;8.346;2023-04-01T06:25:46;99013.88;;;9.65;100.00
26112;BME280;13829;48.990;8.346;2023-04-01T06:29:01;99014.63;;;9.74;100.00
26112;BME280;13829;48.990;8.346;2023-04-01T06:31:54;99015.53;;;9.73;100.00
26112;BME280;13829;48.990;8.346;2023-04-01T06:34:58;99018.75;;;9.92;100.00
26112;BME280;13829;48.990;8.346;2023-04-01T06:38:02;99023.88;;;10.00;100.00
26112;BME280;13829;48.990;8.346;2023-04-01T06:41:13;99019.53;;;9.98;100.00
26112;BME280;13829;48.990;8.346;2023-04-01T06:43:57;99031.81;;;9.95;100.00
26112;BME280;13829;48.990;8.346;2023-04-01T06:46:37;99026.47;;;10.02;100.00
26112;BME280;13829;48.990;8.346;2023-04-01T06:49:44;99021.22;;;10.02;100.00
26112;BME280;13829;48.990;8.346;2023-04-01T06:52:26;99030.78;;;10.07;100.00
26112;BME280;13829;48.990;8.346;2023-04-01T06:55:16;99021.13;;;10.08;100.00
26112;BME280;13829;48.990;8.346;2023-04-01T06:57:50;99019.16;;;10.24;100.00
26112;BME280;13829;48.990;8.346;2023-04-01T07:00:29;99026.16;;;10.23;100.00
26112;BME280;13829;48.990;8.346;2023-04-01T07:03:19;99013.00;;;10.25;100.00
26112;BME280;13829;48.990;8.346;2023-04-01T07:05:48;99027.75;;;10.34;100.00
26112;BME280;13829;48.990;8.346;2023-04-01T07:08:25;99028.75;;;10.26;100.00
26112;BME280;13829;48.990;8.346;2023-04-01T07:11:01;99024.31;;;10.30;100.00
26112;BME280;13829;48.990;8.346;2023-04-01T07:13:34;99033.16;;;10.24;100.00
26112;BME280;13829;48.990;8.346;2023-04-01T07:16:14;99031.41;;;10.23;100.00
26112;BME280;13829;48.990;8.346;2023-04-01T07:18:49;99038.16;;;10.43;100.00
26112;BME280;13829;48.990;8.346;2023-04-01T07:21:27;99029.47;;;10.35;100.00
26112;BME280;13829;48.990;8.346;2023-04-01T07:24:10;99031.41;;;10.25;100.00
26112;BME280;13829;48.990;8.346;2023-04-01T07:26:40;99036.47;;;10.39;100.00
26112;BME280;13829;48.990;8.346;2023-04-01T07:29:13;99047.94;;;10.32;100.00
26112;BME280;13829;48.990;8.346;2023-04-01T07:31:56;99041.97;;;10.20;100.00
26112;BME280;13829;48.990;8.346;2023-04-01T07:34:28;99046.59;;;10.06;100.00
26112;BME280;13829;48.990;8.346;2023-04-01T07:37:09;99039.56;;;10.06;100.00
26112;BME280;13829;48.990;8.346;2023-04-01T07:39:50;99048.09;;;10.21;100.00
26112;BME280;13829;48.990;8.346;2023-04-01T07:42:33;99047.22;;;10.20;100.00
26112;BME280;13829;48.990;8.346;2023-04-01T07:45:17;99044.69;;;10.14;100.00
26112;BME280;13829;48.990;8.346;2023-04-01T07:48:02;99039.47;;;10.12;100.00
26112;BME280;13829;48.990;8.346;2023-04-01T07:50:41;99039.50;;;10.09;100.00
26112;BME280;13829;48.990;8.346;2023-04-01T07:53:22;99034.38;;;10.03;100.00
26112;BME280;13829;48.990;8.346;2023-04-01T07:56:05;99047.31;;;10.14;100.00
26112;BME280;13829;48.990;8.346;2023-04-01T07:58:48;99036.78;;;10.17;100.00
26112;BME280;13829;48.990;8.346;2023-04-01T08:01:28;99034.94;;;10.22;100.00
26112;BME280;13829;48.990;8.346;2023-04-01T08:04:17;99038.38;;;10.27;100.00
26112;BME280;13829;48.990;8.346;2023-04-01T08:06:57;99038.25;;;10.37;100.00
26112;BME280;13829;48.990;8.346;2023-04-01T08:09:37;99035.44;;;10.46;100.00
26112;BME280;13829;48.990;8.346;2023-04-01T08:12:21;99038.81;;;10.56;100.00
26112;BME280;13829;48.990;8.346;2023-04-01T08:15:12;99047.19;;;10.78;100.00
26112;BME280;13829;48.990;8.346;2023-04-01T08:17:58;99034.75;;;10.86;100.00
26112;BME280;13829;48.990;8.346;2023-04-01T08:20:40;99042.81;;;10.77;100.00
26112;BME280;13829;48.990;8.346;2023-04-01T08:23:22;99053.28;;;10.80;100.00
26112;BME280;13829;48.990;8.346;2023-04-01T08:26:00;99056.69;;;10.85;100.00
26112;BME280;13829;48.990;8.346;2023-04-01T08:28:36;99063.59;;;10.92;100.00
26112;BME280;13829;48.990;8.346;2023-04-01T08:31:16;99065.31;;;10.93;100.00
26112;BME280;13829;48.990;8.346;2023-04-01T08:33:49;99065.97;;;11.06;100.00
26112;BME280;13829;48.990;8.346;2023-04-01T08:36:23;99071.19;;;11.08;100.00
26112;BME280;13829;48.990;8.346;2023-04-01T08:38:57;99065.75;;;11.19;100.00
26112;BME280;13829;48.990;8.346;2023-04-01T08:42:12;99049.75;;;11.28;100.00
26112;BME280;13829;48.990;8.346;2023-04-01T08:45:23;99052.44;;;11.26;100.00
26112;BME280;13829;48.990;8.346;2023-04-01T08:48:55;99057.06;;;11.12;100.00
26112;BME280;13829;48.990;8.346;2023-04-01T08:52:18;99071.25;;;11.05;100.00
26112;BME280;13829;48.990;8.346;2023-04-01T09:00:55;99065.59;;;11.26;100.00
26112;BME280;13829;48.990;8.346;2023-04-01T09:03:40;99061.34;;;11.19;100.00
26112;BME280;13829;48.990;8.346;2023-04-01T09:06:26;99073.72;;;11.14;100.00
26112;BME280;13829;48.990;8.346;2023-04-01T09:09:58;99064.06;;;11.15;100.00
26112;BME280;13829;48.990;8.346;2023-04-01T09:12:59;99079.97;;;11.07;100.00
26112;BME280;13829;48.990;8.346;2023-04-01T09:15:55;99082.47;;;11.16;100.00
26112;BME280;13829;48.990;8.346;2023-04-01T09:19:16;99085.88;;;11.21;100.00
26112;BME280;13829;48.990;8.346;2023-04-01T09:22:23;99079.97;;;11.07;100.00
26112;BME280;13829;48.990;8.346;2023-04-01T09:25:22;99082.56;;;11.10;100.00
26112;BME280;13829;48.990;8.346;2023-04-01T09:27:57;99076.38;;;11.13;100.00
26112;BME280;13829;48.990;8.346;2023-04-01T09:31:17;99079.97;;;11.07;100.00
26112;BME280;13829;48.990;8.346;2023-04-01T09:37:19;99074.34;;;11.29;100.00
26112;BME280;13829;48.990;8.346;2023-04-01T09:40:14;99079.75;;;11.19;100.00
26112;BME280;13829;48.990;8.346;2023-04-01T09:42:56;99084.09;;;11.22;100.00
26112;BME280;13829;48.990;8.346;2023-04-01T09:45:44;99080.66;;;11.18;100.00
26112;BME280;13829;48.990;8.346;2023-04-01T09:48:42;99087.72;;;11.16;100.00
26112;BME280;13829;48.990;8.346;2023-04-01T09:51:30;99091.53;;;10.98;100.00
26112;BME280;13829;48.990;8.346;2023-04-01T09:54:22;99092.34;;;11.03;100.00
26112;BME280;13829;48.990;8.346;2023-04-01T09:57:29;99090.59;;;11.02;100.00
26112;BME280;13829;48.990;8.346;2023-04-01T10:00:39;99096.69;;;11.04;100.00
26112;BME280;13829;48.990;8.346;2023-04-01T10:04:11;99098.47;;;11.04;100.00
26112;BME280;13829;48.990;8.346;2023-04-01T10:07:27;99098.53;;;11.01;100.00
26112;BME280;13829;48.990;8.346;2023-04-01T10:10:51;99101.16;;;11.01;100.00
26112;BME280;13829;48.990;8.346;2023-04-01T10:14:10;99104.69;;;10.98;100.00
26112;BME280;13829;48.990;8.346;2023-04-01T10:17:41;99103.94;;;10.91;100.00
26112;BME280;13829;48.990;8.346;2023-04-01T10:24:25;99114.34;;;10.98;100.00
26112;BME280;13829;48.990;8.346;2023-04-01T10:27:33;99124.13;;;10.91;100.00
26112;BME280;13829;48.990;8.346;2023-04-01T10:34:21;99123.19;;;10.93;100.00
26112;BME280;13829;48.990;8.346;2023-04-01T10:36:56;99121.25;;;11.05;100.00
26112;BME280;13829;48.990;8.346;2023-04-01T10:43:45;99112.31;;;11.14;100.00
26112;BME280;13829;48.990;8.346;2023-04-01T10:46:57;99124.44;;;11.22;100.00
26112;BME280;13829;48.990;8.346;2023-04-01T10:50:17;99108.66;;;11.22;100.00
26112;BME280;13829;48.990;8.346;2023-04-01T10:53:26;99116.56;;;11.22;100.00
26112;BME280;13829;48.990;8.346;2023-04-01T10:56:33;99115.53;;;11.30;100.00
26112;BME280;13829;48.990;8.346;2023-04-01T10:59:45;99119.22;;;11.19;100.00
26112;BME280;13829;48.990;8.346;2023-04-01T11:10:16;99131.56;;;11.17;100.00
26112;BME280;13829;48.990;8.346;2023-04-01T11:13:42;99130.47;;;11.29;100.00
26112;BME280;13829;48.990;8.346;2023-04-01T11:16:59;99126.03;;;11.30;100.00
26112;BME280;13829;48.990;8.346;2023-04-01T11:20:13;99134.97;;;11.22;100.00
26112;BME280;13829;48.990;8.346;2023-04-01T11:23:12;99132.44;;;11.16;100.00
26112;BME280;13829;48.990;8.346;2023-04-01T11:25:57;99143.66;;;11.28;100.00
26112;BME280;13829;48.990;8.346;2023-04-01T11:29:03;99136.75;;;11.20;100.00
26112;BME280;13829;48.990;8.346;2023-04-01T11:31:53;99138.53;;;11.18;100.00
26112;BME280;13829;48.990;8.346;2023-04-01T11:34:43;99147.34;;;11.17;100.00
26112;BME280;13829;48.990;8.346;2023-04-01T11:37:37;99146.22;;;11.31;100.00
26112;BME280;13829;48.990;8.346;2023-04-01T11:40:20;99149.78;;;11.28;100.00
26112;BME280;13829;48.990;8.346;2023-04-01T11:43:01;99143.25;;;11.49;100.00
26112;BME280;13829;48.990;8.346;2023-04-01T11:45:37;99150.16;;;11.56;100.00
26112;BME280;13829;48.990;8.346;2023-04-01T11:48:32;99158.16;;;11.49;100.00
26112;BME280;13829;48.990;8.346;2023-04-01T11:51:28;99151.84;;;11.57;100.00
26112;BME280;13829;48.990;8.346;2023-04-01T11:54:14;99150.00;;;11.63;100.00
26112;BME280;13829;48.990;8.346;2023-04-01T11:57:07;99158.22;;;11.46;100.00
26112;BME280;13829;48.990;8.346;2023-04-01T12:00:01;99163.34;;;11.53;100.00
26112;BME280;13829;48.990;8.346;2023-04-01T12:03:00;99172.16;;;11.51;100.00
26112;BME280;13829;48.990;8.346;2023-04-01T12:05:45;99175.72;;;11.48;100.00
26112;BME280;13829;48.990;8.346;2023-04-01T12:08:36;99175.00;;;11.40;100.00
26112;BME280;13829;48.990;8.346;2023-04-01T12:11:19;99182.28;;;11.25;100.00
26112;BME280;13829;48.990;8.346;2023-04-01T12:13:55;99182.56;;;11.10;100.00
26112;BME280;13829;48.990;8.346;2023-04-01T12:16:55;99184.56;;;10.94;100.00
26112;BME280;13829;48.990;8.346;2023-04-01T12:19:40;99184.00;;;10.73;100.00
26112;BME280;13829;48.990;8.346;2023-04-01T12:22:30;99190.00;;;10.83;100.00
26112;BME280;13829;48.990;8.346;2023-04-01T12:25:30;99187.16;;;10.97;100.00
26112;BME280;13829;48.990;8.346;2023-04-01T12:28:14;99198.63;;;10.91;100.00
26112;BME280;13829;48.990;8.346;2023-04-01T12:31:06;99198.69;;;10.88;100.00
26112;BME280;13829;48.990;8.346;2023-04-01T12:34:09;99195.94;;;10.96;100.00
26112;BME280;13829;48.990;8.346;2023-04-01T12:36:55;99205.38;;;11.08;100.00
26112;BME280;13829;48.990;8.346;2023-04-01T12:39:47;99201.84;;;11.09;100.00
26112;BME280;13829;48.990;8.346;2023-04-01T12:42:56;99193.25;;;11.01;100.00
26112;BME280;13829;48.990;8.346;2023-04-01T12:45:32;99196.69;;;11.03;100.00
26112;BME280;13829;48.990;8.346;2023-04-01T12:52:09;99198.63;;;10.91;100.00
26112;BME280;13829;48.990;8.346;2023-04-01T13:01:51;99193.72;;;11.23;100.00
26112;BME280;13829;48.990;8.346;2023-04-01T13:05:02;99205.25;;;11.17;100.00
26112;BME280;13829;48.990;8.346;2023-04-01T13:08:15;99208.50;;;11.32;100.00
26112;BME280;13829;48.990;8.346;2023-04-01T13:11:13;99209.34;;;11.32;100.00
26112;BME280;13829;48.990;8.346;2023-04-01T13:14:32;99207.25;;;11.53;100.00
26112;BME280;13829;48.990;8.346;2023-04-01T13:17:16;99217.53;;;11.65;100.00
26112;BME280;13829;48.990;8.346;2023-04-01T13:19:55;99213.97;;;11.68;100.00
26112;BME280;13829;48.990;8.346;2023-04-01T13:22:39;99213.94;;;11.71;100.00
26112;BME280;13829;48.990;8.346;2023-04-01T13:25:23;99223.47;;;11.78;100.00
26112;BME280;13829;48.990;8.346;2023-04-01T13:28:05;99222.84;;;11.64;100.00
26112;BME280;13829;48.990;8.346;2023-04-01T13:30:47;99226.25;;;11.69;100.00
26112;BME280;13829;48.990;8.346;2023-04-01T13:33:27;99222.91;;;11.61;100.00
26112;BME280;13829;48.990;8.346;2023-04-01T13:36:18;99228.53;;;11.40;100.00
26112;BME280;13829;48.990;8.346;2023-04-01T13:39:15;99231.34;;;11.28;100.00
26112;BME280;13829;48.990;8.346;2023-04-01T13:42:06;99235.66;;;11.34;100.00
26112;BME280;13829;48.990;8.346;2023-04-01T13:44:46;99235.94;;;11.17;100.00
26112;BME280;13829;48.990;8.346;2023-04-01T13:48:18;99231.59;;;11.14;100.00
26112;BME280;13829;48.990;8.346;2023-04-01T13:51:33;99223.59;;;11.20;100.00
26112;BME280;13829;48.990;8.346;2023-04-01T13:57:56;99240.94;;;11.34;100.00
26112;BME280;13829;48.990;8.346;2023-04-01T14:00:55;99245.19;;;11.42;100.00
26112;BME280;13829;48.990;8.346;2023-04-01T14:03:40;99246.06;;;11.40;100.00
26112;BME280;13829;48.990;8.346;2023-04-01T14:06:28;99244.34;;;11.39;100.00
26112;BME280;13829;48.990;8.346;2023-04-01T14:09:23;99247.75;;;11.46;100.00
26112;BME280;13829;48.990;8.346;2023-04-01T14:12:04;99240.97;;;11.31;100.00
26112;BME280;13829;48.990;8.346;2023-04-01T14:14:48;99242.72;;;11.32;100.00
26112;BME280;13829;48.990;8.346;2023-04-01T14:17:40;99241.84;;;11.30;100.00
26112;BME280;13829;48.990;8.346;2023-04-01T14:20:32;99247.34;;;11.17;100.00
26112;BME280;13829;48.990;8.346;2023-04-01T14:23:42;99250.34;;;10.92;100.00
26112;BME280;13829;48.990;8.346;2023-04-01T14:27:12;99248.47;;;10.99;100.00
26112;BME280;13829;48.990;8.346;2023-04-01T14:29:58;99253.66;;;11.05;100.00
26112;BME280;13829;48.990;8.346;2023-04-01T14:32:42;99243.84;;;11.15;100.00
26112;BME280;13829;48.990;8.346;2023-04-01T14:35:37;99243.78;;;11.18;100.00
26112;BME280;13829;48.990;8.346;2023-04-01T14:38:30;99240.38;;;11.13;100.00
26112;BME280;13829;48.990;8.346;2023-04-01T14:41:16;99243.84;;;11.15;100.00
26112;BME280;13829;48.990;8.346;2023-04-01T14:44:10;99241.25;;;11.12;100.00
26112;BME280;13829;48.990;8.346;2023-04-01T14:47:24;99243.78;;;11.18;100.00
26112;BME280;13829;48.990;8.346;2023-04-01T14:50:09;99248.31;;;11.10;100.00
26112;BME280;13829;48.990;8.346;2023-04-01T14:52:46;99249.06;;;11.18;100.00
26112;BME280;13829;48.990;8.346;2023-04-01T14:55:35;99245.50;;;11.22;100.00
26112;BME280;13829;48.990;8.346;2023-04-01T14:58:11;99245.41;;;11.29;100.00
26112;BME280;13829;48.990;8.346;2023-04-01T15:00:57;99248.09;;;11.24;100.00
26112;BME280;13829;48.990;8.346;2023-04-01T15:03:37;99241.00;;;11.29;100.00